createdAt,value
2024-01-06T00:00:54.773Z,83.28
2024-01-06T00:03:23.075Z,84.29
2024-01-06T00:05:51.245Z,83.41
2024-01-06T00:08:19.412Z,82.85
2024-01-06T00:10:49.003Z,83.88
2024-01-06T00:13:17.113Z,83.70
2024-01-06T00:15:45.313Z,83.42
2024-01-06T00:18:13.600Z,82.89
2024-01-06T00:20:42.109Z,83.19
2024-01-06T00:23:10.438Z,81.70
2024-01-06T00:25:38.600Z,82.89
2024-01-06T00:28:08.475Z,82.53
2024-01-06T00:30:36.740Z,83.38
2024-01-06T00:33:05.683Z,83.09
2024-01-06T00:35:34.081Z,83.50
2024-01-06T00:38:02.680Z,82.74
2024-01-06T00:40:31.285Z,83.01
2024-01-06T00:42:59.421Z,82.87
2024-01-06T00:45:29.053Z,82.75
2024-01-06T00:47:57.154Z,82.73
2024-01-06T00:50:25.942Z,83.64
2024-01-06T00:52:54.200Z,83.32
2024-01-06T00:55:22.394Z,83.57
2024-01-06T00:57:51.446Z,82.85
2024-01-06T01:00:19.700Z,83.50
2024-01-06T01:02:49.204Z,83.06
2024-01-06T01:05:17.174Z,83.26
2024-01-06T01:07:45.404Z,82.22
2024-01-06T01:10:13.609Z,82.93
2024-01-06T01:12:41.827Z,82.93
2024-01-06T01:15:10.918Z,82.33
2024-01-06T01:17:39.231Z,82.38
2024-01-06T01:20:10.465Z,82.29
2024-01-06T01:22:38.644Z,81.29
2024-01-06T01:25:08.815Z,81.82
2024-01-06T01:27:37.314Z,81.73
2024-01-06T01:30:06.853Z,82.35
2024-01-06T01:32:35.326Z,82.83
2024-01-06T01:35:04.643Z,82.33
2024-01-06T01:37:34.141Z,82.75
2024-01-06T01:40:02.112Z,83.13
2024-01-06T01:42:30.609Z,83.27
2024-01-06T01:44:58.959Z,83.26
2024-01-06T01:47:27.546Z,83.58
2024-01-06T01:49:57.894Z,82.62
2024-01-06T01:52:26.429Z,82.33
2024-01-06T01:54:56.021Z,82.81
2024-01-06T01:57:27.560Z,82.93
2024-01-06T01:59:57.805Z,82.62
2024-01-06T02:02:26.281Z,83.46
2024-01-06T02:04:54.649Z,83.02
2024-01-06T02:07:23.035Z,82.26
2024-01-06T02:09:50.362Z,82.59
2024-01-06T02:12:20.064Z,83.22
2024-01-06T02:14:48.272Z,83.13
2024-01-06T02:17:16.454Z,82.13
2024-01-06T02:19:46.875Z,82.53
2024-01-06T02:22:16.385Z,81.58
2024-01-06T02:24:44.365Z,81.34
2024-01-06T02:27:12.530Z,82.41
2024-01-06T02:29:40.760Z,82.15
2024-01-06T02:32:09.139Z,82.14
2024-01-06T02:34:39.437Z,81.88
2024-01-06T02:37:07.797Z,83.14
2024-01-06T02:39:37.401Z,82.60
2024-01-06T02:42:06.614Z,82.22
2024-01-06T02:44:34.721Z,81.79
2024-01-06T02:47:02.809Z,82.26
2024-01-06T02:49:30.928Z,82.35
2024-01-06T02:51:59.123Z,81.91
2024-01-06T02:54:27.334Z,81.88
2024-01-06T02:56:56.979Z,81.76
2024-01-06T02:59:25.040Z,81.91
2024-01-06T03:01:53.084Z,81.59
2024-01-06T03:04:21.272Z,81.54
2024-01-06T03:06:53.610Z,82.83
2024-01-06T03:09:21.913Z,81.93
2024-01-06T03:11:50.148Z,81.97
2024-01-06T03:14:19.657Z,82.39
2024-01-06T03:16:47.812Z,82.05
2024-01-06T03:19:16.008Z,83.07
2024-01-06T03:21:44.281Z,82.29
2024-01-06T03:24:12.475Z,82.46
2024-01-06T03:26:40.610Z,82.02
2024-01-06T03:29:08.710Z,81.67
2024-01-06T03:31:38.367Z,82.02
2024-01-06T03:34:06.852Z,82.02
2024-01-06T03:36:35.030Z,82.45
2024-01-06T03:39:03.058Z,82.09
2024-01-06T03:41:31.121Z,82.15
2024-01-06T03:43:59.334Z,82.21
2024-01-06T03:46:27.383Z,81.74
2024-01-06T03:48:56.869Z,81.54
2024-01-06T03:51:25.118Z,81.22
2024-01-06T03:53:53.458Z,81.31
2024-01-06T03:56:21.811Z,81.55
2024-01-06T03:58:49.894Z,81.46
2024-01-06T04:01:17.997Z,81.09
2024-01-06T04:03:46.157Z,80.67
2024-01-06T04:06:15.902Z,81.84
2024-01-06T04:08:44.722Z,81.29
2024-01-06T04:11:12.855Z,81.20
2024-01-06T04:13:41.006Z,81.93
2024-01-06T04:16:08.939Z,81.87
2024-01-06T04:18:37.537Z,81.68
2024-01-06T04:21:06.734Z,82.17
2024-01-06T04:23:36.122Z,83.07
2024-01-06T04:26:05.613Z,82.54
2024-01-06T04:28:33.406Z,83.38
2024-01-06T04:31:01.566Z,83.38
2024-01-06T04:33:30.307Z,82.52
2024-01-06T04:35:58.942Z,82.55
2024-01-06T04:38:27.085Z,83.42
2024-01-06T04:40:56.765Z,83.61
2024-01-06T04:43:24.720Z,83.06
2024-01-06T04:45:52.961Z,83.28
2024-01-06T04:48:21.399Z,83.38
2024-01-06T04:50:49.726Z,82.80
2024-01-06T04:53:17.873Z,82.75
2024-01-06T04:55:45.895Z,83.57
2024-01-06T04:58:15.316Z,83.37
2024-01-06T05:00:43.296Z,82.87
2024-01-06T05:03:11.405Z,82.83
2024-01-06T05:05:39.745Z,82.75
2024-01-06T05:08:08.368Z,83.13
2024-01-06T05:10:36.477Z,83.28
2024-01-06T05:13:04.879Z,84.00
2024-01-06T05:15:34.383Z,84.46
2024-01-06T05:18:02.482Z,84.08
2024-01-06T05:20:30.666Z,84.06
2024-01-06T05:22:58.811Z,84.37
2024-01-06T05:25:27.440Z,84.64
2024-01-06T05:27:55.592Z,83.97
2024-01-06T05:30:23.832Z,84.30
2024-01-06T05:32:53.394Z,83.62
2024-01-06T05:35:21.623Z,84.00
2024-01-06T05:37:49.851Z,84.20
2024-01-06T05:40:17.985Z,85.29
2024-01-06T05:42:46.088Z,84.84
2024-01-06T05:45:14.869Z,85.08
2024-01-06T05:47:43.150Z,85.24
2024-01-06T05:50:13.044Z,84.70
2024-01-06T05:52:41.157Z,84.48
2024-01-06T05:55:11.026Z,85.27
2024-01-06T05:57:39.106Z,85.42
2024-01-06T06:00:12.244Z,83.90
2024-01-06T06:02:41.195Z,84.33
2024-01-06T06:05:10.019Z,84.67
2024-01-06T06:07:40.982Z,85.36
2024-01-06T06:10:11.549Z,85.42
2024-01-06T06:12:41.965Z,84.96
2024-01-06T06:15:10.794Z,84.81
2024-01-06T06:17:39.326Z,85.13
2024-01-06T06:20:08.839Z,85.36
2024-01-06T06:22:37.392Z,85.67
2024-01-06T06:25:09.265Z,85.53
2024-01-06T06:27:37.686Z,85.49
2024-01-06T06:30:07.927Z,85.79
2024-01-06T06:32:36.207Z,85.23
2024-01-06T06:35:05.170Z,84.71
2024-01-06T06:37:33.573Z,85.39
2024-01-06T06:40:02.801Z,84.87
2024-01-06T06:42:32.277Z,85.05
2024-01-06T06:45:00.418Z,84.12
2024-01-06T06:47:28.488Z,84.99
2024-01-06T06:49:56.576Z,84.21
2024-01-06T06:52:24.755Z,84.90
2024-01-06T06:54:53.973Z,85.52
2024-01-06T06:57:22.592Z,85.57
2024-01-06T06:59:52.376Z,85.71
2024-01-06T07:02:20.418Z,84.25
2024-01-06T07:04:48.425Z,84.31
2024-01-06T07:07:16.566Z,84.65
2024-01-06T07:09:44.674Z,84.88
2024-01-06T07:12:12.848Z,83.66
2024-01-06T07:14:41.112Z,84.10
2024-01-06T07:17:10.588Z,85.21
2024-01-06T07:19:39.209Z,84.96
2024-01-06T07:22:07.669Z,84.56
2024-01-06T07:24:37.403Z,85.16
2024-01-06T07:27:06.416Z,84.74
2024-01-06T07:29:34.544Z,84.91
2024-01-06T07:32:02.719Z,85.53
2024-01-06T07:34:32.367Z,85.21
2024-01-06T07:37:01.060Z,85.23
2024-01-06T07:39:29.173Z,84.51
2024-01-06T07:41:57.209Z,83.96
2024-01-06T07:44:26.212Z,84.35
2024-01-06T07:46:55.257Z,84.17
2024-01-06T07:49:23.422Z,84.49
2024-01-06T07:51:53.180Z,84.20
2024-01-06T07:54:21.461Z,84.41
2024-01-06T07:56:49.604Z,84.65
2024-01-06T07:59:17.703Z,84.17
2024-01-06T08:01:45.869Z,84.51
2024-01-06T08:04:14.205Z,84.50
2024-01-06T08:06:42.478Z,84.94
2024-01-06T08:09:11.944Z,84.93
2024-01-06T08:11:40.114Z,85.07
2024-01-06T08:14:08.143Z,84.69
2024-01-06T08:16:37.260Z,84.71
2024-01-06T08:19:05.478Z,85.14
2024-01-06T08:21:35.076Z,84.88
2024-01-06T08:24:03.547Z,85.00
2024-01-06T08:26:33.791Z,84.37
2024-01-06T08:29:01.810Z,84.09
2024-01-06T08:31:30.023Z,84.15
2024-01-06T08:33:58.519Z,83.12
2024-01-06T08:36:26.909Z,84.58
2024-01-06T08:38:55.038Z,84.78
2024-01-06T08:41:23.177Z,84.83
2024-01-06T08:46:21.020Z,84.17
2024-01-06T08:48:49.973Z,85.02
2024-01-06T08:51:18.290Z,84.96
2024-01-06T08:53:46.623Z,85.26
2024-01-06T08:56:14.961Z,84.83
2024-01-06T08:58:43.075Z,84.30
2024-01-06T09:01:14.775Z,84.87
2024-01-06T09:03:42.968Z,83.89
2024-01-06T09:06:11.200Z,84.37
2024-01-06T09:08:39.275Z,83.33
2024-01-06T09:11:07.341Z,83.50
2024-01-06T09:13:35.366Z,83.95
2024-01-06T09:16:03.781Z,83.52
2024-01-06T09:18:33.712Z,84.04
2024-01-06T09:21:01.850Z,84.55
2024-01-06T09:23:29.951Z,82.63
2024-01-06T09:25:58.059Z,83.16
2024-01-06T09:28:26.526Z,83.41
2024-01-06T09:30:56.969Z,82.49
2024-01-06T09:33:25.474Z,82.86
2024-01-06T09:35:55.236Z,82.98
2024-01-06T09:38:23.344Z,82.77
2024-01-06T09:40:51.616Z,82.54
2024-01-06T09:43:19.839Z,81.86
2024-01-06T09:45:58.598Z,81.17
2024-01-06T09:48:32.098Z,81.59
2024-01-06T09:51:05.980Z,81.86
2024-01-06T09:53:38.342Z,82.66
2024-01-06T09:56:08.858Z,82.56
2024-01-06T09:58:40.932Z,82.76
2024-01-06T10:01:10.119Z,82.37
2024-01-06T10:03:38.946Z,81.76
2024-01-06T10:06:10.748Z,81.13
2024-01-06T10:08:41.604Z,81.06
2024-01-06T10:11:10.659Z,80.51
2024-01-06T10:13:39.563Z,81.03
2024-01-06T10:16:08.195Z,81.14
2024-01-06T10:18:37.102Z,81.05
2024-01-06T10:21:08.684Z,81.54
2024-01-06T10:23:37.713Z,81.24
2024-01-06T10:26:06.308Z,81.07
2024-01-06T10:28:34.742Z,81.75
2024-01-06T10:31:03.201Z,80.89
2024-01-06T10:33:35.048Z,80.27
2024-01-06T10:36:04.225Z,81.55
2024-01-06T10:38:35.566Z,80.77
2024-01-06T10:41:08.728Z,81.23
2024-01-06T10:43:41.538Z,80.63
2024-01-06T10:46:11.750Z,80.59
2024-01-06T10:48:44.742Z,80.68
2024-01-06T10:51:14.692Z,81.80
2024-01-06T10:53:45.368Z,82.04
2024-01-06T10:56:13.461Z,81.60
2024-01-06T10:58:51.226Z,81.73
2024-01-06T11:01:28.061Z,81.64
2024-01-06T11:03:59.456Z,81.50
2024-01-06T11:06:29.168Z,81.39
2024-01-06T11:09:08.967Z,82.11
2024-01-06T11:11:38.755Z,82.08
2024-01-06T11:14:26.317Z,83.01
2024-01-06T11:16:56.090Z,82.15
2024-01-06T11:19:56.014Z,81.64
2024-01-06T11:22:29.773Z,81.70
2024-01-06T11:25:06.915Z,81.49
2024-01-06T11:27:36.844Z,81.65
2024-01-06T11:30:08.166Z,81.66
2024-01-06T11:32:40.083Z,81.35
2024-01-06T11:35:11.028Z,80.22
2024-01-06T11:37:54.064Z,79.94
2024-01-06T11:40:33.476Z,80.37
2024-01-06T11:43:06.367Z,80.12
2024-01-06T11:45:35.165Z,80.13
2024-01-06T11:48:05.933Z,80.58
2024-01-06T11:50:35.728Z,81.87
2024-01-06T11:53:05.685Z,80.26
2024-01-06T11:55:35.879Z,81.27
2024-01-06T11:58:05.637Z,81.38
2024-01-06T12:00:37.615Z,80.14
2024-01-06T12:03:06.715Z,79.93
2024-01-06T12:05:34.688Z,79.85
2024-01-06T12:08:06.126Z,80.76
2024-01-06T12:10:36.625Z,80.54
2024-01-06T12:13:09.819Z,79.71
2024-01-06T12:15:40.859Z,80.04
2024-01-06T12:18:10.007Z,79.78
2024-01-06T12:20:38.186Z,79.60
2024-01-06T12:23:07.286Z,80.13
2024-01-06T12:25:40.472Z,80.07
2024-01-06T12:28:10.044Z,79.89
2024-01-06T12:30:40.351Z,79.30
2024-01-06T12:33:08.590Z,79.23
2024-01-06T12:35:37.402Z,79.76
2024-01-06T12:38:08.480Z,80.07
2024-01-06T12:40:40.040Z,80.31
2024-01-06T12:43:08.601Z,79.85
2024-01-06T12:45:36.990Z,79.75
2024-01-06T12:48:05.611Z,79.89
2024-01-06T12:50:33.685Z,79.13
2024-01-06T12:53:01.766Z,78.89
2024-01-06T12:55:29.813Z,79.77
2024-01-06T12:58:02.095Z,78.93
2024-01-06T13:00:31.225Z,78.68
2024-01-06T13:03:00.407Z,78.36
2024-01-06T13:05:28.654Z,77.25
2024-01-06T13:07:56.874Z,78.99
2024-01-06T13:10:24.842Z,79.25
2024-01-06T13:12:54.143Z,79.42
2024-01-06T13:15:23.857Z,79.56
2024-01-06T13:17:52.794Z,78.63
2024-01-06T13:20:21.058Z,79.39
2024-01-06T13:22:49.201Z,79.19
2024-01-06T13:25:17.445Z,80.46
2024-01-06T13:27:45.690Z,79.92
2024-01-06T13:30:18.729Z,79.41
2024-01-06T13:32:49.898Z,79.10
2024-01-06T13:35:18.393Z,78.25
2024-01-06T13:37:49.258Z,79.00
2024-01-06T13:40:20.601Z,77.75
2024-01-06T13:42:49.048Z,77.15
2024-01-06T13:45:17.485Z,77.92
2024-01-06T13:47:46.560Z,77.49
2024-01-06T13:50:19.357Z,78.57
2024-01-06T13:52:47.835Z,78.56
2024-01-06T13:55:16.113Z,78.13
2024-01-06T13:57:44.451Z,79.01
2024-01-06T14:00:18.587Z,78.54
2024-01-06T14:02:48.976Z,77.96
2024-01-06T14:05:20.632Z,78.53
2024-01-06T14:07:51.362Z,78.69
2024-01-06T14:10:19.425Z,78.50
2024-01-06T14:12:48.285Z,78.61
2024-01-06T14:15:16.851Z,78.85
2024-01-06T14:17:50.688Z,78.88
2024-01-06T14:20:20.661Z,79.58
2024-01-06T14:22:50.334Z,79.04
2024-01-06T14:25:19.912Z,79.22
2024-01-06T14:27:49.033Z,78.59
2024-01-06T14:30:17.653Z,78.00
2024-01-06T14:32:45.985Z,78.23
2024-01-06T14:35:15.475Z,76.83
2024-01-06T14:37:46.202Z,77.48
2024-01-06T14:40:15.018Z,77.25
2024-01-06T14:42:43.270Z,78.11
2024-01-06T14:45:12.156Z,77.31
2024-01-06T14:47:40.301Z,76.87
2024-01-06T14:50:09.967Z,76.41
2024-01-06T14:52:38.095Z,76.71
2024-01-06T14:55:08.798Z,77.38
2024-01-06T14:57:36.925Z,76.87
2024-01-06T15:00:06.023Z,77.26
2024-01-06T15:02:34.106Z,77.47
2024-01-06T15:05:02.228Z,77.52
2024-01-06T15:07:32.644Z,77.31
2024-01-06T15:10:03.370Z,77.62
2024-01-06T15:12:33.782Z,77.58
2024-01-06T15:15:01.992Z,77.24
2024-01-06T15:17:30.117Z,77.45
2024-01-06T15:19:58.360Z,77.04
2024-01-06T15:22:26.572Z,77.17
2024-01-06T15:24:57.843Z,77.70
2024-01-06T15:27:26.977Z,76.90
2024-01-06T15:29:56.530Z,77.58
2024-01-06T15:32:24.496Z,76.80
2024-01-06T15:34:52.822Z,77.03
2024-01-06T15:37:21.031Z,77.07
2024-01-06T15:39:49.214Z,76.71
2024-01-06T15:42:17.407Z,76.80
2024-01-06T15:44:45.484Z,76.32
2024-01-06T15:47:15.365Z,76.67
2024-01-06T15:49:43.513Z,75.98
2024-01-06T15:52:12.053Z,76.94
2024-01-06T15:54:40.341Z,76.04
2024-01-06T15:57:09.498Z,76.64
2024-01-06T15:59:37.644Z,76.10
2024-01-06T16:02:06.002Z,76.72
2024-01-06T16:04:35.487Z,77.26
2024-01-06T16:07:06.914Z,76.75
2024-01-06T16:09:35.542Z,77.00
2024-01-06T16:12:06.953Z,77.13
2024-01-06T16:14:36.849Z,76.52
2024-01-06T16:17:05.550Z,76.49
2024-01-06T16:19:35.986Z,76.37
2024-01-06T16:22:14.355Z,76.30
2024-01-06T16:24:46.052Z,75.73
2024-01-06T16:27:14.557Z,76.48
2024-01-06T16:29:42.736Z,76.19
2024-01-06T16:32:10.993Z,75.76
2024-01-06T16:34:42.484Z,76.07
2024-01-06T16:37:12.033Z,74.54
2024-01-06T16:39:40.066Z,75.07
2024-01-06T16:42:08.861Z,75.09
2024-01-06T16:44:38.886Z,74.67
2024-01-06T16:47:08.247Z,74.54
2024-01-06T16:49:36.534Z,74.34
2024-01-06T16:52:06.681Z,74.28
2024-01-06T16:54:35.143Z,74.24
2024-01-06T16:57:04.400Z,74.49
2024-01-06T16:59:33.948Z,74.61
2024-01-06T17:02:04.989Z,74.85
2024-01-06T17:04:35.296Z,74.88
2024-01-06T17:07:05.795Z,75.61
2024-01-06T17:09:34.099Z,75.51
2024-01-06T17:12:02.324Z,75.48
2024-01-06T17:14:30.548Z,76.78
2024-01-06T17:16:58.744Z,76.61
2024-01-06T17:19:27.141Z,77.20
2024-01-06T17:21:55.477Z,77.99
2024-01-06T17:24:25.630Z,78.79
2024-01-06T17:26:53.752Z,80.34
2024-01-06T17:29:21.777Z,81.13
2024-01-06T17:31:49.855Z,82.45
2024-01-06T17:34:18.128Z,83.04
2024-01-06T17:38:04.836Z,83.20
2024-01-06T17:40:34.319Z,82.99
2024-01-06T17:43:02.463Z,83.14
2024-01-06T17:45:30.518Z,81.69
2024-01-06T17:47:58.605Z,80.29
2024-01-06T17:50:26.733Z,79.14
2024-01-06T17:52:54.862Z,78.52
2024-01-06T17:55:22.898Z,77.71
2024-01-06T17:57:52.354Z,77.20
2024-01-06T18:00:21.719Z,77.71
2024-01-06T18:02:49.658Z,77.30
2024-01-06T18:05:18.865Z,76.70
2024-01-06T18:07:47.058Z,76.79
2024-01-06T18:10:16.101Z,76.95
2024-01-06T18:12:44.266Z,76.73
2024-01-06T18:15:13.815Z,75.66
2024-01-06T18:17:41.998Z,75.01
2024-01-06T18:20:11.714Z,75.87
2024-01-06T18:22:40.247Z,76.30
2024-01-06T18:25:09.577Z,76.10
2024-01-06T18:27:37.467Z,76.31
2024-01-06T18:30:07.737Z,76.12
2024-01-06T18:32:37.398Z,76.60
2024-01-06T18:35:07.415Z,76.94
2024-01-06T18:37:35.714Z,76.93
2024-01-06T18:40:08.122Z,77.02
2024-01-06T18:42:37.521Z,76.41
2024-01-06T18:45:06.255Z,76.97
2024-01-06T18:47:39.828Z,75.95
2024-01-06T18:50:09.754Z,76.13
2024-01-06T18:52:44.857Z,75.89
2024-01-06T18:55:13.100Z,75.64
2024-01-06T18:57:41.241Z,75.31
2024-01-06T19:00:11.067Z,75.64
2024-01-06T19:02:40.477Z,75.52
2024-01-06T19:05:09.201Z,74.87
2024-01-06T19:07:37.690Z,74.35
2024-01-06T19:10:06.989Z,74.66
2024-01-06T19:12:35.230Z,74.65
2024-01-06T19:15:03.580Z,74.66
2024-01-06T19:17:31.619Z,74.40
2024-01-06T19:20:02.267Z,74.83
2024-01-06T19:22:30.377Z,74.76
2024-01-06T19:24:58.521Z,74.81
2024-01-06T19:27:26.667Z,74.21
2024-01-06T19:29:55.070Z,74.91
2024-01-06T19:32:23.528Z,74.65
2024-01-06T19:34:55.304Z,73.99
2024-01-06T19:37:25.114Z,73.92
2024-01-06T19:39:53.133Z,73.79
2024-01-06T19:42:21.169Z,73.90
2024-01-06T19:44:49.228Z,74.03
2024-01-06T19:47:18.682Z,73.94
2024-01-06T19:49:46.671Z,73.88
2024-01-06T19:52:15.836Z,73.96
2024-01-06T19:54:45.221Z,74.28
2024-01-06T19:57:17.013Z,73.97
2024-01-06T19:59:47.848Z,72.96
2024-01-06T20:02:15.887Z,73.29
2024-01-06T20:04:44.092Z,73.04
2024-01-06T20:07:12.557Z,72.60
2024-01-06T20:09:46.874Z,72.85
2024-01-06T20:12:16.919Z,73.31
2024-01-06T20:14:45.071Z,73.75
2024-01-06T20:17:13.139Z,73.33
2024-01-06T20:19:41.850Z,74.43
2024-01-06T20:22:10.568Z,75.10
2024-01-06T20:24:39.973Z,76.77
2024-01-06T20:27:08.062Z,78.01
2024-01-06T20:29:37.493Z,78.74
2024-01-06T20:32:06.733Z,78.92
2024-01-06T20:34:35.320Z,78.71
2024-01-06T20:37:03.885Z,77.92
2024-01-06T20:39:32.272Z,78.08
2024-01-06T20:42:00.548Z,77.76
2024-01-06T20:44:29.067Z,76.85
2024-01-06T20:46:59.875Z,77.33
2024-01-06T20:49:29.958Z,76.95
2024-01-06T20:51:58.564Z,77.07
2024-01-06T20:54:30.277Z,76.93
2024-01-06T20:56:59.211Z,76.16
2024-01-06T20:59:29.695Z,75.43
2024-01-06T21:01:59.613Z,75.09
2024-01-06T21:04:28.034Z,74.79
2024-01-06T21:06:56.713Z,73.89
2024-01-06T21:09:27.625Z,73.17
2024-01-06T21:11:55.998Z,72.42
2024-01-06T21:14:24.332Z,71.02
2024-01-06T21:16:52.613Z,70.64
2024-01-06T21:19:23.498Z,70.35
2024-01-06T21:21:56.388Z,70.29
2024-01-06T21:24:27.390Z,69.14
2024-01-06T21:26:55.556Z,68.86
2024-01-06T21:29:24.794Z,68.81
2024-01-06T21:31:53.624Z,69.48
2024-01-06T21:34:25.560Z,68.02
2024-01-06T21:36:54.373Z,68.43
2024-01-06T21:39:22.858Z,68.93
2024-01-06T21:41:51.404Z,67.77
2024-01-06T21:44:20.768Z,68.18
2024-01-06T21:46:48.707Z,67.99
2024-01-06T21:49:17.390Z,67.66
2024-01-06T21:51:50.258Z,67.66
2024-01-06T21:54:18.551Z,67.90
2024-01-06T21:56:46.940Z,67.25
2024-01-06T21:59:18.999Z,67.21
2024-01-06T22:01:47.302Z,67.27
2024-01-06T22:04:15.813Z,67.24
2024-01-06T22:06:44.106Z,66.75
2024-01-06T22:09:14.889Z,67.08
2024-01-06T22:11:44.353Z,66.79
2024-01-06T22:14:14.672Z,66.51
2024-01-06T22:16:43.258Z,66.20
2024-01-06T22:19:13.321Z,66.45
2024-01-06T22:21:44.117Z,67.35
2024-01-06T22:24:14.954Z,66.09
2024-01-06T22:26:43.342Z,66.76
2024-01-06T22:29:11.921Z,66.45
2024-01-06T22:31:44.049Z,66.24
2024-01-06T22:34:13.789Z,66.40
2024-01-06T22:36:42.569Z,66.87
2024-01-06T22:39:10.666Z,67.03
2024-01-06T22:41:40.055Z,66.43
2024-01-06T22:44:08.127Z,66.31
2024-01-06T22:46:36.548Z,66.95
2024-01-06T22:49:07.482Z,66.24
2024-01-06T22:51:35.799Z,66.21
2024-01-06T22:54:04.160Z,66.68
2024-01-06T22:56:32.231Z,65.81
2024-01-06T22:59:02.429Z,66.92
2024-01-06T23:01:32.668Z,66.93
2024-01-06T23:04:01.139Z,66.27
2024-01-06T23:06:29.673Z,65.70
2024-01-06T23:08:57.894Z,65.91
2024-01-06T23:11:26.009Z,66.22
2024-01-06T23:13:54.141Z,66.74
2024-01-06T23:16:23.648Z,65.93
2024-01-06T23:18:51.833Z,66.37
2024-01-06T23:21:19.928Z,66.31
2024-01-06T23:23:49.129Z,65.89
2024-01-06T23:26:17.179Z,66.01
2024-01-06T23:28:45.124Z,66.01
2024-01-06T23:31:13.220Z,66.57
2024-01-06T23:33:43.566Z,66.74
2024-01-06T23:36:11.837Z,66.57
2024-01-06T23:38:39.771Z,66.23
2024-01-06T23:41:07.768Z,67.06
2024-01-06T23:43:35.744Z,66.90
2024-01-06T23:46:04.548Z,67.48
2024-01-06T23:48:32.646Z,67.83
2024-01-06T23:51:01.957Z,68.18
2024-01-06T23:53:29.696Z,67.87
2024-01-06T23:55:57.603Z,67.77
2024-01-06T23:58:25.634Z,67.69
